LFOP 220830Z AUTO 30007KT 270V340 CAVOK 14/10 Q1022 NOSIG

ElémentsDécodage
LFOP Station météo située sur l'aérodrome de ROUEN Vallée-de-Seine
220830Z émis le 22 du mois à 08h30 UTC
AUTO Bulletin édité par un automate
30007KT vent du 300°, 07 noeuds
270V340 vent de direction variable entre 270° et 340°
CAVOK Ceiling And Visibility OK
- Visibilité de 10 Km ou plus
- Pas de nuage au-dessous de 1500m ou au-dessous de l'altitude minimale du secteur la plus élevée (si>1500m) et absence de CB
- pas de temps présent significatif
14/10 température 14°C, point de rosée 10°C
 soit une humidité relative de 77%
Q1022 la pression au niveau de la mer (QNH) est de 1022 hPa
NOSIG Pas de changement significatif prévu au cours des deux heures suivant l'heure de l'observation